Time;durP1;ratioP1;P1;durP2;ratioP2;P2;SDS_P1;SDS_P2;PMS_P1;PMS_P2;Temp;Humidity;BMP_temperature;BMP_pressure;BME280_temperature;BME280_humidity;BME280_pressure;Samples;Min_cycle;Max_cycle;Signal;HPM_P1;HPM_P2
2022/10/30 00:00:20;;;;;;;;;;;;;;;11.13;62.44;95986.16;5033297;28;1100;-57
2022/10/30 00:02:47;;;;;;;;;;;;;;;10.96;62.74;95986.91;5033571;28;982;-57
2022/10/30 00:05:13;;;;;;;;;;;;;;;10.84;62.91;95986.22;5032569;28;962;-57
2022/10/30 00:07:39;;;;;;;;;;;;;;;10.90;62.75;95985.66;5033459;28;1038;-57
2022/10/30 00:10:05;;;;;;;;;;;;;;;11.06;62.20;95985.91;5033760;28;1054;-57
2022/10/30 00:12:31;;;;;;;;;;;;;;;10.94;62.75;95982.53;5032926;28;1232;-58
2022/10/30 00:14:58;;;;;;;;;;;;;;;10.96;62.98;95985.06;5033433;28;1902;-57
2022/10/30 00:17:24;;;;;;;;;;;;;;;10.95;62.73;95975.38;5033132;28;1046;-57
2022/10/30 00:19:50;;;;;;;;;;;;;;;10.95;62.64;95983.41;5033351;28;1026;-57
2022/10/30 00:22:16;;;;;;;;;;;;;;;10.95;62.51;95988.75;5033197;28;1415;-57
2022/10/30 00:24:42;;;;;;;;;;;;;;;10.98;62.50;95982.25;5033232;28;1045;-57
2022/10/30 00:27:08;;;;;;;;;;;;;;;10.91;62.49;95987.34;5033069;28;1113;-57
2022/10/30 00:29:34;;;;;;;;;;;;;;;10.83;62.68;95980.03;5034437;28;1108;-57
2022/10/30 00:32:00;;;;;;;;;;;;;;;10.81;62.31;95979.31;5053093;28;1269;-57
2022/10/30 00:34:26;;;;;;;;;;;;;;;10.66;62.16;95981.59;5053062;28;1067;-58
2022/10/30 00:36:52;;;;;;;;;;;;;;;10.53;62.39;95981.03;5052902;28;1066;-57
2022/10/30 00:39:18;;;;;;;;;;;;;;;10.48;62.64;95977.94;5052863;28;1308;-57
2022/10/30 00:41:44;;;;;;;;;;;;;;;10.52;62.62;95974.81;5052843;28;1046;-57
2022/10/30 00:44:29;;;;;;;;;;;;;;;10.48;62.94;95969.91;5053130;28;1053;-57
2022/10/30 00:46:55;;;;;;;;;;;;;;;10.59;63.27;95969.78;5053067;28;1128;-57
2022/10/30 00:49:22;;;;;;;;;;;;;;;10.71;62.59;95960.59;5052871;28;1052;-57
2022/10/30 00:51:51;;;;;;;;;;;;;;;10.63;62.50;95962.31;5051291;28;1159;-57
2022/10/30 00:54:18;;;;;;;;;;;;;;;10.39;63.08;95955.53;5032725;28;1081;-57
2022/10/30 00:56:46;;;;;;;;;;;;;;;10.18;62.99;95954.81;5033107;28;1997;-57
2022/10/30 00:59:19;;;;;;;;;;;;;;;10.13;63.45;95955.19;5032795;28;1128;-57
2022/10/30 01:01:45;;;;;;;;;;;;;;;10.22;63.51;95962.38;5032949;28;1037;-57
2022/10/30 01:04:12;;;;;;;;;;;;;;;10.19;63.51;95954.69;5032849;28;979;-57
2022/10/30 01:06:41;;;;;;;;;;;;;;;10.15;64.07;95954.09;5032826;28;1065;-57
2022/10/30 01:09:07;;;;;;;;;;;;;;;10.28;64.37;95944.94;5032811;28;1053;-57
2022/10/30 01:11:33;;;;;;;;;;;;;;;10.46;63.92;95943.31;5032685;28;1034;-57
2022/10/30 01:14:01;;;;;;;;;;;;;;;10.50;63.44;95941.19;5032534;28;1248;-57
2022/10/30 01:16:46;;;;;;;;;;;;;;;10.42;63.44;95939.25;5032940;28;1983;-57
2022/10/30 01:19:18;;;;;;;;;;;;;;;10.21;63.26;95946.53;5036326;28;1033;-57
2022/10/30 01:22:02;;;;;;;;;;;;;;;10.22;62.71;95937.50;5036567;28;1028;-57
2022/10/30 01:24:45;;;;;;;;;;;;;;;9.96;64.05;95932.72;5036176;28;1034;-57
2022/10/30 01:27:23;;;;;;;;;;;;;;;10.12;63.68;95941.00;5036295;28;970;-57
2022/10/30 01:29:49;;;;;;;;;;;;;;;10.21;63.99;95931.31;5039132;28;1096;-57
2022/10/30 01:32:26;;;;;;;;;;;;;;;10.12;63.99;95926.81;5056196;28;1097;-57
2022/10/30 01:34:58;;;;;;;;;;;;;;;10.12;63.87;95927.66;5056151;28;1909;-57
2022/10/30 01:37:30;;;;;;;;;;;;;;;10.16;64.09;95928.22;5055832;28;1229;-57
2022/10/30 01:39:56;;;;;;;;;;;;;;;10.05;64.26;95920.31;5055873;28;1253;-57
2022/10/30 01:42:42;;;;;;;;;;;;;;;9.96;63.83;95920.19;5055712;28;1028;-57
2022/10/30 01:45:10;;;;;;;;;;;;;;;9.91;63.87;95921.59;5056096;28;997;-57
2022/10/30 01:47:48;;;;;;;;;;;;;;;9.72;64.06;95919.72;5055749;28;1035;-57
2022/10/30 01:50:26;;;;;;;;;;;;;;;9.69;64.35;95918.16;5055717;28;1073;-57
2022/10/30 01:52:58;;;;;;;;;;;;;;;9.65;64.31;95915.91;5045226;28;1171;-57
2022/10/30 01:55:36;;;;;;;;;;;;;;;9.65;64.04;95913.22;5035777;28;1987;-57
2022/10/30 01:58:07;;;;;;;;;;;;;;;9.48;64.27;95914.72;5035711;28;1105;-57
2022/10/30 02:00:34;;;;;;;;;;;;;;;9.52;64.48;95913.47;5035489;28;1049;-57
2022/10/30 02:03:01;;;;;;;;;;;;;;;9.42;64.72;95913.44;5036020;28;1050;-57
2022/10/30 02:05:32;;;;;;;;;;;;;;;9.41;64.70;95911.78;5035317;28;1033;-57
2022/10/30 02:07:58;;;;;;;;;;;;;;;9.46;64.30;95904.19;5035705;28;1009;-57
2022/10/30 02:10:24;;;;;;;;;;;;;;;9.41;64.31;95898.41;5017980;28;1018;-58
2022/10/30 02:12:50;;;;;;;;;;;;;;;9.40;64.48;95907.41;5035184;28;1089;-57
2022/10/30 02:15:17;;;;;;;;;;;;;;;9.47;64.96;95899.69;5035203;28;1909;-57
2022/10/30 02:17:43;;;;;;;;;;;;;;;9.63;64.21;95909.84;5035284;28;1045;-57
2022/10/30 02:20:13;;;;;;;;;;;;;;;9.46;64.65;95893.50;5035741;28;994;-57
2022/10/30 02:22:40;;;;;;;;;;;;;;;9.50;64.70;95896.75;5035383;28;1188;-58
2022/10/30 02:25:06;;;;;;;;;;;;;;;9.61;64.37;95901.97;5035296;28;1122;-57
2022/10/30 02:27:32;;;;;;;;;;;;;;;9.63;64.68;95904.50;5035056;28;1061;-58
2022/10/30 02:29:59;;;;;;;;;;;;;;;9.78;64.80;95897.78;5038502;28;1045;-57
2022/10/30 02:32:25;;;;;;;;;;;;;;;9.79;64.78;95894.16;5054827;28;1053;-57
2022/10/30 02:34:51;;;;;;;;;;;;;;;9.77;64.63;95901.47;5055059;28;1906;-58
2022/10/30 02:37:17;;;;;;;;;;;;;;;9.60;64.58;95899.44;5054707;28;1109;-58
2022/10/30 02:39:43;;;;;;;;;;;;;;;9.54;64.32;95903.50;5054906;28;1280;-57
2022/10/30 02:42:09;;;;;;;;;;;;;;;9.64;64.03;95906.22;5054792;28;993;-58
2022/10/30 02:44:35;;;;;;;;;;;;;;;9.49;64.62;95901.25;5054721;28;966;-58
2022/10/30 02:47:01;;;;;;;;;;;;;;;9.46;65.04;95904.19;5054649;28;993;-57
2022/10/30 02:49:27;;;;;;;;;;;;;;;9.49;64.76;95903.91;5054513;28;1029;-58
2022/10/30 02:51:53;;;;;;;;;;;;;;;9.49;65.10;95905.75;5052239;28;1257;-58
2022/10/30 02:54:19;;;;;;;;;;;;;;;9.46;64.53;95903.34;5034444;28;1113;-58
2022/10/30 02:56:45;;;;;;;;;;;;;;;9.24;64.90;95910.59;5034455;28;1997;-58
2022/10/30 02:59:11;;;;;;;;;;;;;;;9.16;65.05;95908.59;5034406;28;1093;-58
2022/10/30 03:01:37;;;;;;;;;;;;;;;9.02;65.36;95902.75;5034436;28;1050;-58
2022/10/30 03:04:04;;;;;;;;;;;;;;;9.08;65.15;95905.72;5034373;28;1017;-58
2022/10/30 03:06:30;;;;;;;;;;;;;;;9.12;64.87;95901.78;5034275;28;1050;-58
2022/10/30 03:08:56;;;;;;;;;;;;;;;9.16;65.38;95897.91;5034488;28;993;-58
2022/10/30 03:11:22;;;;;;;;;;;;;;;9.26;64.87;95897.94;5034340;28;1057;-58
2022/10/30 03:13:48;;;;;;;;;;;;;;;9.25;65.09;95906.06;5034135;28;1145;-58
2022/10/30 03:16:16;;;;;;;;;;;;;;;9.22;65.11;95909.00;5034046;28;1993;-58
2022/10/30 03:18:42;;;;;;;;;;;;;;;9.17;64.97;95906.75;5034082;28;1029;-58
2022/10/30 03:21:10;;;;;;;;;;;;;;;9.21;65.39;95913.50;5034183;28;1045;-57
2022/10/30 03:23:36;;;;;;;;;;;;;;;9.23;65.34;95905.38;5034031;28;1061;-58
2022/10/30 03:26:03;;;;;;;;;;;;;;;9.29;65.01;95910.16;5034077;28;1056;-58
2022/10/30 03:28:29;;;;;;;;;;;;;;;9.30;64.58;95909.19;5033953;28;1138;-57
2022/10/30 03:30:59;;;;;;;;;;;;;;;9.31;63.93;95908.19;5046085;28;1049;-57
2022/10/30 03:33:25;;;;;;;;;;;;;;;9.24;63.77;95915.03;5053958;28;993;-58
2022/10/30 03:35:52;;;;;;;;;;;;;;;9.12;64.78;95903.63;5053790;28;1917;-58
2022/10/30 03:38:18;;;;;;;;;;;;;;;9.14;65.21;95905.22;5053938;28;969;-58
2022/10/30 03:40:44;;;;;;;;;;;;;;;9.07;65.40;95909.38;5053681;28;1297;-58
2022/10/30 03:43:10;;;;;;;;;;;;;;;9.05;65.73;95913.13;5053615;28;1101;-58
2022/10/30 03:45:36;;;;;;;;;;;;;;;8.99;65.94;95909.19;5052326;28;1008;-58
2022/10/30 03:48:03;;;;;;;;;;;;;;;9.01;65.42;95909.06;5053777;28;1038;-57
2022/10/30 03:50:29;;;;;;;;;;;;;;;8.94;65.14;95912.25;5053406;28;1034;-57
2022/10/30 03:52:56;;;;;;;;;;;;;;;8.81;65.58;95914.28;5042733;28;1160;-57
2022/10/30 03:55:22;;;;;;;;;;;;;;;8.94;65.75;95911.41;5033495;28;1902;-57
2022/10/30 03:57:48;;;;;;;;;;;;;;;9.01;64.98;95919.72;5033595;28;1014;-57
2022/10/30 04:00:16;;;;;;;;;;;;;;;8.79;65.28;95922.41;5033723;28;1082;-57
2022/10/30 04:02:45;;;;;;;;;;;;;;;8.68;65.64;95919.81;5033666;28;1033;-57
2022/10/30 04:05:12;;;;;;;;;;;;;;;8.70;65.37;95923.19;5033276;28;1005;-57
2022/10/30 04:07:38;;;;;;;;;;;;;;;8.68;66.02;95922.47;5033524;28;966;-57
2022/10/30 04:10:04;;;;;;;;;;;;;;;8.69;66.65;95920.66;5033304;28;1094;-58
2022/10/30 04:12:30;;;;;;;;;;;;;;;8.62;66.48;95916.84;5033005;28;1386;-58
2022/10/30 04:14:56;;;;;;;;;;;;;;;8.63;66.39;95924.69;5033226;28;1914;-57
2022/10/30 04:17:22;;;;;;;;;;;;;;;8.53;66.42;95926.44;5033158;28;1034;-57
2022/10/30 04:19:48;;;;;;;;;;;;;;;8.60;66.20;95927.63;5033442;28;1014;-57
2022/10/30 04:22:14;;;;;;;;;;;;;;;8.66;66.33;95918.28;5033308;28;1138;-57
2022/10/30 04:24:40;;;;;;;;;;;;;;;8.74;65.50;95923.78;5033291;28;997;-57
2022/10/30 04:27:07;;;;;;;;;;;;;;;8.64;65.32;95923.72;5033244;28;1050;-57
2022/10/30 04:29:33;;;;;;;;;;;;;;;8.56;66.06;95924.38;5033904;28;1053;-57
2022/10/30 04:31:59;;;;;;;;;;;;;;;8.61;66.28;95915.97;5052921;28;1074;-57
2022/10/30 04:34:25;;;;;;;;;;;;;;;8.68;65.63;95919.81;5052961;28;1069;-58
2022/10/30 04:36:51;;;;;;;;;;;;;;;8.74;64.97;95921.13;5053181;28;1906;-58
2022/10/30 04:39:17;;;;;;;;;;;;;;;8.65;65.32;95913.91;5052951;28;1320;-57
2022/10/30 04:41:43;;;;;;;;;;;;;;;8.52;65.10;95919.44;5051880;28;1065;-58
2022/10/30 04:44:09;;;;;;;;;;;;;;;8.38;66.73;95926.75;5052917;28;1063;-58
2022/10/30 04:46:35;;;;;;;;;;;;;;;8.45;66.71;95923.59;5052831;28;1121;-58
2022/10/30 04:49:01;;;;;;;;;;;;;;;8.55;66.57;95928.00;5053039;28;990;-58
2022/10/30 04:51:27;;;;;;;;;;;;;;;8.66;66.04;95927.09;5053096;28;1105;-58
2022/10/30 04:53:53;;;;;;;;;;;;;;;8.55;65.15;95929.84;5038057;28;1135;-58
2022/10/30 04:56:19;;;;;;;;;;;;;;;8.61;64.88;95931.97;5036775;28;1906;-58
2022/10/30 04:58:45;;;;;;;;;;;;;;;8.53;65.54;95927.28;5036719;28;1026;-58
2022/10/30 05:01:12;;;;;;;;;;;;;;;8.51;65.58;95929.25;5036885;28;1068;-58
2022/10/30 05:03:38;;;;;;;;;;;;;;;8.64;65.07;95931.72;5036907;28;1041;-58
2022/10/30 05:06:14;;;;;;;;;;;;;;;8.66;64.70;95931.59;5036642;28;1136;-58
2022/10/30 05:08:40;;;;;;;;;;;;;;;8.61;65.56;95939.97;5036724;28;1060;-58
2022/10/30 05:11:06;;;;;;;;;;;;;;;8.53;65.59;95939.78;5036625;28;986;-58
2022/10/30 05:13:33;;;;;;;;;;;;;;;8.50;65.99;95938.22;5036174;28;1231;-58
2022/10/30 05:15:59;;;;;;;;;;;;;;;8.54;65.73;95944.16;5036600;28;1914;-58
2022/10/30 05:18:25;;;;;;;;;;;;;;;8.54;65.93;95945.00;5036323;28;1121;-57
2022/10/30 05:20:51;;;;;;;;;;;;;;;8.57;66.23;95944.75;5036541;28;1029;-57
2022/10/30 05:23:17;;;;;;;;;;;;;;;8.51;66.09;95939.06;5036347;28;989;-57
2022/10/30 05:25:43;;;;;;;;;;;;;;;8.58;65.26;95929.59;5036238;28;1151;-57
2022/10/30 05:28:09;;;;;;;;;;;;;;;8.71;64.85;95938.22;5036161;28;1078;-58
2022/10/30 05:30:35;;;;;;;;;;;;;;;8.82;64.50;95944.47;5045478;28;1095;-58
2022/10/30 05:33:02;;;;;;;;;;;;;;;8.67;65.05;95939.47;5056257;28;1011;-57
2022/10/30 05:35:29;;;;;;;;;;;;;;;8.69;65.44;95949.97;5038219;28;1906;-58
2022/10/30 05:37:55;;;;;;;;;;;;;;;8.86;64.91;95940.53;5055957;28;1004;-58
2022/10/30 05:40:21;;;;;;;;;;;;;;;8.96;65.37;95950.31;5055872;28;1309;-58
2022/10/30 05:42:47;;;;;;;;;;;;;;;9.04;65.14;95941.66;5055805;28;1025;-58
2022/10/30 05:45:14;;;;;;;;;;;;;;;9.24;64.90;95941.72;5055743;28;1129;-58
2022/10/30 05:47:40;;;;;;;;;;;;;;;9.40;65.11;95959.94;5055953;28;1017;-58
2022/10/30 05:50:07;;;;;;;;;;;;;;;9.46;65.31;95962.91;5055827;28;1068;-58
2022/10/30 05:52:33;;;;;;;;;;;;;;;9.69;65.14;95960.03;5047897;28;1242;-58
2022/10/30 05:54:59;;;;;;;;;;;;;;;10.40;63.46;95962.59;5035710;28;2003;-58
2022/10/30 05:57:29;;;;;;;;;;;;;;;11.42;59.87;95959.34;5035533;28;1057;-59
2022/10/30 05:59:55;;;;;;;;;;;;;;;12.46;56.21;95964.44;5035847;28;969;-59
2022/10/30 06:02:21;;;;;;;;;;;;;;;12.43;56.04;95959.38;5035424;28;1101;-59
2022/10/30 06:04:47;;;;;;;;;;;;;;;12.25;57.26;95958.50;5035706;28;1050;-60
2022/10/30 06:07:13;;;;;;;;;;;;;;;12.06;58.25;95957.63;5035525;28;927;-60
2022/10/30 06:09:39;;;;;;;;;;;;;;;12.10;58.96;95950.13;5035454;28;1041;-59
2022/10/30 06:12:05;;;;;;;;;;;;;;;12.27;59.22;95949.31;5035351;28;1006;-60
2022/10/30 06:17:48;;;;;;;;;;;;;;;12.42;58.26;95956.81;4995988;28;1117;-60
2022/10/30 06:20:15;;;;;;;;;;;;;;;12.90;57.87;95950.22;4995821;28;1058;-59
2022/10/30 06:22:41;;;;;;;;;;;;;;;13.76;55.68;95951.28;4995805;28;991;-59
2022/10/30 06:25:07;;;;;;;;;;;;;;;17.43;46.48;95976.69;4995841;28;931;-59
2022/10/30 06:27:34;;;;;;;;;;;;;;;21.31;38.69;95992.59;4994730;28;1048;-59
2022/10/30 06:30:00;;;;;;;;;;;;;;;24.58;32.97;96011.97;5000272;28;1045;-59
2022/10/30 06:32:26;;;;;;;;;;;;;;;27.12;29.53;96025.94;5015291;28;966;-60
2022/10/30 06:34:52;;;;;;;;;;;;;;;26.66;29.41;96025.00;5015169;28;1902;-60
2022/10/30 06:37:18;;;;;;;;;;;;;;;22.48;35.26;95997.50;5014189;28;1080;-60
2022/10/30 06:39:44;;;;;;;;;;;;;;;20.26;39.43;95971.16;5020937;28;1242;-60
2022/10/30 06:42:10;;;;;;;;;;;;;;;18.46;43.16;95956.09;5034905;28;1093;-60
2022/10/30 06:44:36;;;;;;;;;;;;;;;16.75;47.19;95946.84;5034882;28;984;-59
2022/10/30 06:47:02;;;;;;;;;;;;;;;15.47;50.87;95940.88;5034784;28;1101;-60
2022/10/30 06:49:28;;;;;;;;;;;;;;;15.20;51.67;95941.09;5034622;28;1148;-58
2022/10/30 06:51:54;;;;;;;;;;;;;;;14.98;52.35;95947.16;5029856;28;1233;-58
2022/10/30 06:54:20;;;;;;;;;;;;;;;14.58;53.56;95948.84;4995208;28;1050;-58
2022/10/30 06:56:50;;;;;;;;;;;;;;;14.52;53.57;95946.78;4995421;28;1985;-58
2022/10/30 06:59:16;;;;;;;;;;;;;;;14.25;54.18;95944.19;4994109;28;1446;-58
2022/10/30 07:01:42;;;;;;;;;;;;;;;14.18;53.67;95943.16;4995200;28;978;-59
2022/10/30 07:04:08;;;;;;;;;;;;;;;14.28;52.76;95944.88;4995047;28;1051;-59
2022/10/30 07:06:35;;;;;;;;;;;;;;;16.07;48.68;95950.28;4995417;28;1267;-59
2022/10/30 07:09:01;;;;;;;;;;;;;;;16.32;47.62;95938.34;4995007;28;1077;-60
2022/10/30 07:11:27;;;;;;;;;;;;;;;16.09;49.10;95935.63;4994902;28;1153;-59
2022/10/30 07:13:53;;;;;;;;;;;;;;;16.45;47.73;95940.47;4994934;28;994;-59
2022/10/30 07:16:19;;;;;;;;;;;;;;;17.70;44.96;95939.22;5010377;28;1906;-60
2022/10/30 07:18:46;;;;;;;;;;;;;;;17.85;45.11;95936.56;5016638;28;1256;-58
2022/10/30 07:21:12;;;;;;;;;;;;;;;20.79;39.02;95967.84;5034040;28;1108;-58
2022/10/30 07:23:38;;;;;;;;;;;;;;;21.07;38.17;95958.66;5034040;28;1065;-58
2022/10/30 07:26:04;;;;;;;;;;;;;;;21.00;38.46;95960.53;5034152;28;1013;-58
2022/10/30 07:28:30;;;;;;;;;;;;;;;23.34;34.44;95967.06;5034016;28;1017;-58
2022/10/30 07:30:59;;;;;;;;;;;;;;;22.12;35.99;95961.56;5046135;28;1082;-58
2022/10/30 07:33:26;;;;;;;;;;;;;;;21.12;38.29;95956.19;5053618;28;1109;-58
2022/10/30 07:35:52;;;;;;;;;;;;;;;20.21;39.49;95945.66;5053693;28;1910;-58
2022/10/30 07:38:18;;;;;;;;;;;;;;;20.86;38.85;95952.34;5053833;28;1147;-58
2022/10/30 07:40:50;;;;;;;;;;;;;;;24.27;34.04;95961.84;5053800;28;1336;-58
2022/10/30 07:43:16;;;;;;;;;;;;;;;26.56;30.18;95987.19;5053631;28;1028;-58
2022/10/30 07:45:43;;;;;;;;;;;;;;;26.17;30.57;95983.31;5053641;28;1017;-59
2022/10/30 07:48:09;;;;;;;;;;;;;;;28.88;27.06;95994.72;5053546;28;1034;-59
2022/10/30 07:50:35;;;;;;;;;;;;;;;30.74;24.96;95996.94;5053448;28;1039;-59
2022/10/30 07:53:02;;;;;;;;;;;;;;;32.92;22.31;96014.31;5041727;28;1238;-59
2022/10/30 07:55:28;;;;;;;;;;;;;;;32.72;22.62;96012.41;5033339;28;1907;-59
2022/10/30 07:57:54;;;;;;;;;;;;;;;35.26;20.07;96017.47;5033498;28;1141;-59
2022/10/30 08:00:20;;;;;;;;;;;;;;;33.60;21.40;95999.03;5033492;28;1024;-59
2022/10/30 08:02:49;;;;;;;;;;;;;;;33.28;21.92;95988.38;5033370;28;1026;-59
2022/10/30 08:05:16;;;;;;;;;;;;;;;34.19;21.19;96011.09;5033561;28;1052;-59
2022/10/30 08:07:44;;;;;;;;;;;;;;;35.74;19.56;96005.41;5033562;28;1048;-59
2022/10/30 08:10:11;;;;;;;;;;;;;;;37.53;18.02;96009.69;5033489;28;1057;-59
2022/10/30 08:12:39;;;;;;;;;;;;;;;34.97;20.05;95981.44;5033312;28;1083;-59
2022/10/30 08:15:05;;;;;;;;;;;;;;;31.24;23.34;95961.50;5033254;28;1973;-59
2022/10/30 08:17:32;;;;;;;;;;;;;;;32.04;23.39;95968.53;5032919;28;1165;-59
2022/10/30 08:19:58;;;;;;;;;;;;;;;31.45;23.83;95956.00;5015970;28;1029;-59
2022/10/30 08:22:24;;;;;;;;;;;;;;;30.05;24.87;95948.25;5033299;28;1038;-59
2022/10/30 08:24:50;;;;;;;;;;;;;;;29.46;25.57;95943.59;5033159;28;1045;-59
2022/10/30 08:27:16;;;;;;;;;;;;;;;27.34;27.69;95929.16;5034709;28;1093;-59
2022/10/30 08:29:42;;;;;;;;;;;;;;;25.90;29.65;95910.63;5039339;28;1054;-59
2022/10/30 08:32:08;;;;;;;;;;;;;;;24.40;31.76;95897.97;5057047;28;1036;-59
2022/10/30 08:34:34;;;;;;;;;;;;;;;23.04;34.28;95887.78;5057327;28;1048;-59
2022/10/30 08:37:00;;;;;;;;;;;;;;;24.49;31.75;95902.06;5057028;28;1898;-58
2022/10/30 08:39:26;;;;;;;;;;;;;;;25.13;30.66;95897.78;5056909;28;1182;-58
2022/10/30 08:41:52;;;;;;;;;;;;;;;23.64;32.72;95891.84;5055988;28;1048;-58
2022/10/30 08:44:18;;;;;;;;;;;;;;;23.40;32.88;95875.31;5056991;28;1201;-58
2022/10/30 08:46:44;;;;;;;;;;;;;;;23.47;32.92;95883.44;5055772;28;989;-58
2022/10/30 08:49:10;;;;;;;;;;;;;;;22.74;35.12;95882.09;5057045;28;1084;-58
2022/10/30 08:51:36;;;;;;;;;;;;;;;21.77;36.29;95879.34;5057235;28;1072;-58
2022/10/30 08:54:02;;;;;;;;;;;;;;;21.95;35.68;95871.34;5037018;28;1033;-58
2022/10/30 08:56:29;;;;;;;;;;;;;;;23.61;33.15;95868.59;5036827;28;1903;-58
2022/10/30 08:58:55;;;;;;;;;;;;;;;23.25;34.08;95858.44;5036771;28;1030;-58
2022/10/30 09:01:21;;;;;;;;;;;;;;;22.17;35.73;95857.44;5035456;28;1054;-58
2022/10/30 09:03:47;;;;;;;;;;;;;;;21.36;36.70;95859.53;5036959;28;1228;-58
2022/10/30 09:06:13;;;;;;;;;;;;;;;20.89;37.76;95844.28;5036757;28;1050;-58
2022/10/30 09:08:39;;;;;;;;;;;;;;;20.76;39.27;95837.78;5036627;28;1026;-58
2022/10/30 09:11:05;;;;;;;;;;;;;;;20.74;39.28;95828.19;5036725;28;1041;-58
2022/10/30 09:13:31;;;;;;;;;;;;;;;20.76;39.34;95832.38;5036459;28;1125;-58
2022/10/30 09:16:01;;;;;;;;;;;;;;;20.99;39.01;95833.84;5036189;28;1908;-58
2022/10/30 09:18:27;;;;;;;;;;;;;;;21.14;38.47;95830.91;5035450;28;1057;-58
2022/10/30 09:20:53;;;;;;;;;;;;;;;21.13;38.76;95821.06;5036394;28;1124;-58
2022/10/30 09:23:19;;;;;;;;;;;;;;;21.61;38.37;95818.06;5036429;28;1145;-58
2022/10/30 09:25:45;;;;;;;;;;;;;;;21.97;37.16;95819.41;5036274;28;1133;-58
2022/10/30 09:28:11;;;;;;;;;;;;;;;21.93;37.04;95824.44;5036188;28;1053;-58
2022/10/30 09:30:37;;;;;;;;;;;;;;;22.16;36.62;95820.38;5045763;28;1050;-58
2022/10/30 09:33:04;;;;;;;;;;;;;;;22.46;36.58;95820.66;5056376;28;1029;-58
2022/10/30 09:35:31;;;;;;;;;;;;;;;22.73;36.66;95813.09;5056105;28;1987;-59
2022/10/30 09:37:57;;;;;;;;;;;;;;;23.33;35.92;95814.50;5055729;28;1040;-59
2022/10/30 09:40:41;;;;;;;;;;;;;;;24.22;35.04;95825.06;5055883;28;1308;-58
2022/10/30 09:43:15;;;;;;;;;;;;;;;25.35;33.57;95820.63;5055879;28;962;-59
2022/10/30 09:45:44;;;;;;;;;;;;;;;26.84;31.03;95819.09;5055949;28;1112;-59
2022/10/30 09:48:26;;;;;;;;;;;;;;;28.23;28.40;95830.25;5055995;28;974;-59
2022/10/30 09:50:54;;;;;;;;;;;;;;;29.06;27.78;95831.94;5055738;28;1037;-59
2022/10/30 09:53:50;;;;;;;;;;;;;;;29.53;27.71;95834.00;5055597;28;1186;-59
2022/10/30 09:56:16;;;;;;;;;;;;;;;29.62;27.08;95831.59;5042299;28;1906;-59
2022/10/30 09:59:04;;;;;;;;;;;;;;;29.31;26.51;95830.53;5055828;28;1001;-59
2022/10/30 10:01:38;;;;;;;;;;;;;;;28.98;27.04;95816.75;5055239;28;1290;-59
2022/10/30 10:04:23;;;;;;;;;;;;;;;28.70;28.04;95806.03;5055560;28;966;-59
2022/10/30 10:06:52;;;;;;;;;;;;;;;28.22;28.10;95789.25;5038001;28;1049;-59
2022/10/30 10:09:19;;;;;;;;;;;;;;;27.89;28.75;95784.72;5055357;28;1104;-59
2022/10/30 10:11:52;;;;;;;;;;;;;;;27.38;29.23;95782.91;5055507;28;962;-59
2022/10/30 10:14:31;;;;;;;;;;;;;;;26.83;30.36;95761.72;5055785;28;1029;-59
2022/10/30 10:16:59;;;;;;;;;;;;;;;26.27;31.15;95762.38;5055018;28;1910;-59
2022/10/30 10:19:37;;;;;;;;;;;;;;;25.59;32.30;95757.63;5037718;28;994;-58
2022/10/30 10:22:13;;;;;;;;;;;;;;;24.57;33.84;95754.16;5055379;28;1017;-58
2022/10/30 10:24:43;;;;;;;;;;;;;;;23.74;35.74;95739.31;5055187;28;1037;-58
2022/10/30 10:27:15;;;;;;;;;;;;;;;23.10;36.84;95731.41;5037324;28;989;-60
2022/10/30 10:29:59;;;;;;;;;;;;;;;22.74;36.88;95730.25;5053499;28;1113;-60
2022/10/30 10:32:25;;;;;;;;;;;;;;;22.45;37.52;95726.31;5054908;28;1089;-60
2022/10/30 10:35:10;;;;;;;;;;;;;;;22.31;38.19;95724.75;5055108;28;2001;-60
2022/10/30 10:37:42;;;;;;;;;;;;;;;22.13;38.75;95714.59;5054762;28;1054;-60
2022/10/30 10:40:08;;;;;;;;;;;;;;;22.01;38.25;95704.38;5055022;28;1332;-60
2022/10/30 10:42:34;;;;;;;;;;;;;;;21.88;38.25;95704.47;5054737;28;1105;-60
2022/10/30 10:45:23;;;;;;;;;;;;;;;21.83;38.89;95698.84;5054787;28;1042;-60
2022/10/30 10:47:49;;;;;;;;;;;;;;;21.78;38.44;95691.34;5044157;28;1512;-60
2022/10/30 10:50:36;;;;;;;;;;;;;;;21.78;38.50;95688.63;5053638;28;1042;-60
2022/10/30 10:53:06;;;;;;;;;;;;;;;21.79;38.71;95689.44;5043067;28;1226;-60
2022/10/30 10:55:35;;;;;;;;;;;;;;;21.76;39.11;95690.72;5034710;28;1903;-60
2022/10/30 10:58:10;;;;;;;;;;;;;;;21.79;39.61;95673.94;5034570;28;1102;-58
2022/10/30 11:00:36;;;;;;;;;;;;;;;21.78;39.89;95672.28;5034574;28;1025;-58
2022/10/30 11:03:05;;;;;;;;;;;;;;;21.81;39.48;95676.47;5034725;28;989;-58
2022/10/30 11:05:35;;;;;;;;;;;;;;;21.83;39.63;95658.88;5034553;28;1050;-58
2022/10/30 11:08:11;;;;;;;;;;;;;;;21.87;38.32;95663.84;5034366;28;1030;-58
2022/10/30 11:10:37;;;;;;;;;;;;;;;21.91;39.22;95663.22;5016775;28;1054;-58
2022/10/30 11:13:03;;;;;;;;;;;;;;;21.98;38.72;95657.72;5034142;28;1038;-57
2022/10/30 11:15:38;;;;;;;;;;;;;;;22.10;37.86;95657.81;5034117;28;1910;-58
2022/10/30 11:18:06;;;;;;;;;;;;;;;22.17;37.98;95651.28;5034491;28;965;-58
2022/10/30 11:20:37;;;;;;;;;;;;;;;22.17;37.74;95650.44;5034049;28;1109;-58
2022/10/30 11:23:23;;;;;;;;;;;;;;;22.10;37.21;95653.25;5034118;28;1049;-58
2022/10/30 11:25:49;;;;;;;;;;;;;;;22.14;38.06;95642.72;5033900;28;1051;-57
2022/10/30 11:28:26;;;;;;;;;;;;;;;22.14;37.18;95638.13;5016585;28;989;-57
2022/10/30 11:31:12;;;;;;;;;;;;;;;22.18;37.02;95643.97;5045646;28;1109;-58
2022/10/30 11:33:38;;;;;;;;;;;;;;;22.11;36.98;95638.56;5053740;28;1087;-58
2022/10/30 11:36:07;;;;;;;;;;;;;;;22.20;36.85;95634.50;5053693;28;1913;-58
2022/10/30 11:38:33;;;;;;;;;;;;;;;22.18;36.88;95638.50;5053889;28;954;-58
2022/10/30 11:41:00;;;;;;;;;;;;;;;22.19;36.73;95637.44;5053864;28;1265;-58
2022/10/30 11:43:26;;;;;;;;;;;;;;;22.23;37.09;95630.50;5053711;28;1033;-58
2022/10/30 11:45:53;;;;;;;;;;;;;;;22.26;36.18;95626.53;5053572;28;1109;-58
2022/10/30 11:48:22;;;;;;;;;;;;;;;22.25;36.17;95630.28;5053530;28;1120;-58
2022/10/30 11:50:51;;;;;;;;;;;;;;;22.28;36.15;95622.53;5053454;28;1077;-58
2022/10/30 11:53:33;;;;;;;;;;;;;;;22.29;36.35;95626.06;5039805;28;1183;-58
2022/10/30 11:56:01;;;;;;;;;;;;;;;22.23;36.32;95622.31;5033519;28;1938;-58
2022/10/30 11:58:27;;;;;;;;;;;;;;;22.24;36.01;95626.72;5033557;28;1062;-58
2022/10/30 12:01:06;;;;;;;;;;;;;;;22.22;36.63;95617.94;5033476;28;1001;-61
2022/10/30 12:03:37;;;;;;;;;;;;;;;22.21;35.82;95619.84;5033614;28;985;-58
2022/10/30 12:06:15;;;;;;;;;;;;;;;22.18;35.95;95619.44;5033527;28;1061;-58
2022/10/30 12:08:56;;;;;;;;;;;;;;;22.21;35.74;95616.25;5033428;28;1058;-58
2022/10/30 12:11:26;;;;;;;;;;;;;;;22.15;36.40;95611.72;5033321;28;1069;-58
2022/10/30 12:13:53;;;;;;;;;;;;;;;22.21;35.53;95616.25;5033264;28;1222;-58
2022/10/30 12:16:20;;;;;;;;;;;;;;;22.26;36.29;95602.84;5033013;28;1898;-57
2022/10/30 12:18:56;;;;;;;;;;;;;;;22.31;35.68;95608.47;5033304;28;1054;-57
2022/10/30 12:21:24;;;;;;;;;;;;;;;22.30;36.04;95598.63;5033710;28;1134;-57
2022/10/30 12:23:53;;;;;;;;;;;;;;;22.25;36.20;95595.72;5033234;28;1034;-58
2022/10/30 12:26:19;;;;;;;;;;;;;;;22.21;35.48;95589.03;5033080;28;1058;-58
2022/10/30 12:29:15;;;;;;;;;;;;;;;22.30;35.15;95587.72;5033208;28;1058;-58
2022/10/30 12:32:04;;;;;;;;;;;;;;;22.31;35.54;95594.00;5038234;28;1366;-58
2022/10/30 12:34:36;;;;;;;;;;;;;;;22.10;35.81;95582.44;5053008;28;922;-58
2022/10/30 12:37:08;;;;;;;;;;;;;;;21.91;35.84;95580.69;5053236;28;1906;-58
2022/10/30 12:39:47;;;;;;;;;;;;;;;21.87;35.08;95574.03;5035392;28;1252;-58
2022/10/30 12:42:16;;;;;;;;;;;;;;;21.85;34.84;95571.53;5053033;28;982;-58
2022/10/30 12:44:45;;;;;;;;;;;;;;;21.88;34.58;95571.09;5051797;28;1034;-57
2022/10/30 12:47:11;;;;;;;;;;;;;;;21.98;34.26;95576.03;5052820;28;1021;-58
2022/10/30 12:49:43;;;;;;;;;;;;;;;22.15;34.96;95571.69;5052905;28;1097;-58
2022/10/30 12:52:14;;;;;;;;;;;;;;;22.23;34.74;95565.97;5048516;28;1175;-58
2022/10/30 12:54:52;;;;;;;;;;;;;;;22.25;34.61;95573.94;5033126;28;1029;-58
2022/10/30 12:57:26;;;;;;;;;;;;;;;22.23;35.11;95571.44;5032849;28;1907;-58
2022/10/30 12:59:56;;;;;;;;;;;;;;;22.17;35.47;95561.41;5032837;28;1117;-58
2022/10/30 13:02:29;;;;;;;;;;;;;;;22.12;35.51;95568.56;5033004;28;962;-59
2022/10/30 13:04:59;;;;;;;;;;;;;;;22.06;35.42;95558.59;5033072;28;1053;-59
2022/10/30 13:07:31;;;;;;;;;;;;;;;22.07;35.34;95555.66;5032754;28;1140;-59
2022/10/30 13:10:15;;;;;;;;;;;;;;;22.09;35.20;95555.44;5032805;28;1149;-59
2022/10/30 13:12:43;;;;;;;;;;;;;;;22.12;35.04;95560.41;5033688;28;1045;-58